Kapuskasing Airport
CYYU : now visible

Airfield :











YOU CAN JOIN US ON...

 
LOGIN :

Register | Disclaimer

   EN    FR    IT 

 









Legend :    VFR   Marginal VFR   IFR   Intensive IFR   Very Intensive IFR
Visi :
Ceiling :
>= 8 km
>= 3000ft
5 to 8 km
1000 to 3000 ft
1500m to 5 km
500 to 1000 ft
800 to 1500m
200 to 500 ft
< 800m
< 200 ft
Symbols :   Thunderstorms  Fog  Heavy snow  Heavy precipitations  Wind > 20 kt






- Airport Elevation : 743 ft
- IATA code : YYU


CYYU - Kapuskasing

CURRENT METAR :
  • 231436Z 04011G16KT 1/2SM SN VV005 M01/M03 A2963 RMK SN8 SLP047

EXPIRED METARs :
  • 231400Z 04013G22KT 5/8SM -SN VV010 M01/M04 A2962 RMK SN8 SLP041
  • 231352Z 04013KT 1 1/2SM -SN OVC015 M00/M05 A2962 RMK SN4SC4 SLP041
  • 231326Z 03013G23KT 12SM -SN SCT036 BKN039 OVC046 00/M05 A2961 RMK SC3SC2SC3 SLP038
  • 231200Z 04011G17KT 15SM FEW062 BKN083 OVC091 M00/M06 A2958 RMK SC2AC4AC2 SLP027
  • 231100Z 02012G18KT 15SM FEW050 FEW055 SCT063 BKN074 OVC085 02/M05 A2953 RMK SC1SC1SC2AC2AC2 CIG RAG SLP011
  • 231054Z 02014KT 15SM FEW050 FEW055 SCT063 BKN074 OVC085 02/M05 A2953 RMK SC1SC1SC2AC2AC2 SLP008

TAF AMD TAF CYYU
Valid from the 23 at 15:00 until the 24 at 02:00 UTC


231508Z 2315/2402 03012G22KT P6SM OVC040
TEMPO 2315/2316 1/2SM SN VV006
FM231600 02015G25KT 1 1/2SM -SN OVC010
TEMPO 2316/2321 6SM -SN OVC025
PROB30 2316/2321 3/4SM -SN VV006
FM232100 01015G25KT P6SM SCT040 OVC070
FM240000 01015G25KT P6SM FEW040 RMK NXT FCST BY 232000Z
CZYZ FIR / North America



MET'MAP, your aeronautical weather chart ! - Copyright ORBIFLY December 2007 - Disclaimer

ORBIFLY MET'MAP TEAM :

Programming & Development : Alexandra Zaïnal
Original concept : Baudouin d'Aumeries
Technical & hardware support : Manuel Goepfert
Assistance : Marc-Olivier Méhu




SOURCES & CREDITS :

   NOAA       Earth
Advisory